Time,TemperatureF,DewpointF,PressureIn,WindDirection,WindDirectionDegrees,WindSpeedMPH,WindSpeedGustMPH,Humidity,HourlyPrecipIn,Conditions,Clouds,dailyrainin,SoftwareType,DateUTC
2013-04-23 00:01:00,69.7,67.9,30.02,NE,35,4.6,4.6,94,0.00,RA,,0.00,WeatherDisplay:10.37,2013-04-23 04:01:00,
2013-04-23 00:03:00,69.6,67.8,30.02,NE,45,5.8,5.8,94,0.00,RA,,0.00,WeatherDisplay:10.37,2013-04-23 04:03:00,
2013-04-23 00:08:00,69.6,67.8,30.02,NNE,25,8.1,8.1,94,0.00,RA,,0.00,WeatherDisplay:10.37,2013-04-23 04:08:00,
2013-04-23 00:13:00,69.6,67.8,30.02,NNE,23,6.9,6.9,94,0.00,CLR,,0.00,WeatherDisplay:10.37,2013-04-23 04:13:00,
2013-04-23 00:18:00,69.6,67.8,30.02,NE,56,8.0,8.0,94,0.00,CLR,,0.00,WeatherDisplay:10.37,2013-04-23 04:18:00,
2013-04-23 00:23:00,69.6,67.8,30.02,NE,41,3.5,3.5,94,0.00,CLR,,0.00,WeatherDisplay:10.37,2013-04-23 04:23:00,
2013-04-23 00:28:00,69.6,67.8,30.02,NE,46,4.6,4.6,94,0.00,CLR,,0.00,WeatherDisplay:10.37,2013-04-23 04:28:00,
2013-04-23 00:33:00,69.6,67.8,30.02,NNE,12,3.5,3.5,94,0.00,CLR,,0.00,WeatherDisplay:10.37,2013-04-23 04:33:00,
2013-04-23 00:38:00,69.4,67.6,30.02,NNW,347,3.5,3.5,94,0.00,CLR,,0.00,WeatherDisplay:10.37,2013-04-23 04:38:00,
2013-04-23 00:43:00,69.3,67.5,30.03,NNW,342,3.0,3.0,94,0.00,CLR,,0.00,WeatherDisplay:10.37,2013-04-23 04:43:00,
2013-04-23 00:49:00,69.2,67.4,30.02,NNE,20,4.0,4.0,94,0.00,CLR,,0.00,WeatherDisplay:10.37,2013-04-23 04:49:00,
2013-04-23 00:54:00,69.0,67.2,30.02,NNW,346,4.6,4.6,94,0.00,CLR,,0.00,WeatherDisplay:10.37,2013-04-23 04:54:00,
2013-04-23 00:59:00,68.9,67.1,30.02,North,4,6.0,6.0,94,0.00,CLR,,0.00,WeatherDisplay:10.37,2013-04-23 04:59:00,
2013-04-23 01:04:00,68.9,67.1,30.02,North,352,6.0,6.0,94,0.00,CLR,,0.00,WeatherDisplay:10.37,2013-04-23 05:04:00,
2013-04-23 01:09:00,68.8,67.0,30.02,NNE,30,6.0,6.0,94,0.00,CLR,,0.00,WeatherDisplay:10.37,2013-04-23 05:09:00,
2013-04-23 01:14:00,68.8,67.0,30.02,NNE,12,4.6,4.6,94,0.00,CLR,,0.00,WeatherDisplay:10.37,2013-04-23 05:14:00,
2013-04-23 01:19:00,68.9,67.4,30.01,NNE,26,4.0,4.0,95,0.00,CLR,,0.00,WeatherDisplay:10.37,2013-04-23 05:19:00,
2013-04-23 01:24:00,68.9,67.4,30.02,North,11,3.5,3.5,95,0.00,CLR,,0.00,WeatherDisplay:10.37,2013-04-23 05:24:00,
2013-04-23 01:30:00,68.9,67.4,30.02,North,4,2.3,2.7,95,0.00,CLR,,0.00,WeatherDisplay:10.37,2013-04-23 05:30:00,
2013-04-23 01:35:00,68.9,67.4,30.02,North,356,3.5,3.5,95,0.00,CLR,,0.00,WeatherDisplay:10.37,2013-04-23 05:35:00,
2013-04-23 01:40:00,68.9,67.4,30.02,NNW,340,3.5,3.5,95,0.00,CLR,,0.00,WeatherDisplay:10.37,2013-04-23 05:40:00,
2013-04-23 01:45:00,68.9,67.4,30.01,NNE,19,4.6,4.6,95,0.00,CLR,,0.00,WeatherDisplay:10.37,2013-04-23 05:45:00,
2013-04-23 01:50:00,68.9,67.4,30.01,North,8,5.8,5.8,95,0.00,CLR,,0.00,WeatherDisplay:10.37,2013-04-23 05:50:00,
2013-04-23 01:55:00,68.9,67.4,30.01,NNE,15,4.0,4.0,95,0.00,CLR,,0.00,WeatherDisplay:10.37,2013-04-23 05:55:00,
2013-04-23 02:00:00,68.9,67.4,30.01,North,358,5.8,5.8,95,0.00,CLR,,0.00,WeatherDisplay:10.37,2013-04-23 06:00:00,
2013-04-23 02:05:00,68.9,67.4,30.01,North,356,3.5,3.5,95,0.00,CLR,,0.00,WeatherDisplay:10.37,2013-04-23 06:05:00,
2013-04-23 02:10:00,68.8,67.3,30.00,NNE,25,5.8,5.8,95,0.00,CLR,,0.00,WeatherDisplay:10.37,2013-04-23 06:10:00,
2013-04-23 02:16:00,68.8,67.3,30.00,NW,322,6.9,6.9,95,0.00,CLR,,0.00,WeatherDisplay:10.37,2013-04-23 06:16:00,
2013-04-23 02:21:00,68.8,67.3,30.00,NNW,346,5.8,5.8,95,0.00,CLR,,0.00,WeatherDisplay:10.37,2013-04-23 06:21:00,
2013-04-23 02:26:00,68.7,67.2,30.00,North,352,3.0,3.0,95,0.00,CLR,,0.00,WeatherDisplay:10.37,2013-04-23 06:26:00,
2013-04-23 02:31:00,68.6,67.1,30.00,North,359,5.8,5.8,95,0.00,CLR,,0.00,WeatherDisplay:10.37,2013-04-23 06:31:00,
2013-04-23 02:36:00,68.6,67.1,30.00,NNW,348,4.6,4.6,95,0.00,CLR,,0.00,WeatherDisplay:10.37,2013-04-23 06:36:00,
2013-04-23 02:41:00,68.5,67.0,29.99,NNW,337,6.9,6.9,95,0.00,CLR,,0.00,WeatherDisplay:10.37,2013-04-23 06:41:00,
2013-04-23 02:46:00,68.4,66.9,29.99,North,8,3.5,3.5,95,0.00,CLR,,0.00,WeatherDisplay:10.37,2013-04-23 06:46:00,
2013-04-23 02:51:00,68.4,66.9,29.99,NNE,13,5.8,5.8,95,0.00,CLR,,0.00,WeatherDisplay:10.37,2013-04-23 06:51:00,
2013-04-23 02:56:00,68.3,66.8,29.99,NNE,30,6.9,6.9,95,0.00,CLR,,0.00,WeatherDisplay:10.37,2013-04-23 06:56:00,
2013-04-23 03:01:00,68.3,66.8,29.99,NNE,26,4.0,4.0,95,0.00,CLR,,0.00,WeatherDisplay:10.37,2013-04-23 07:01:00,
2013-04-23 03:06:00,68.2,66.7,29.98,NNW,340,7.0,7.0,95,0.00,CLR,,0.00,WeatherDisplay:10.37,2013-04-23 07:06:00,
2013-04-23 03:12:00,68.1,66.6,29.98,North,352,6.9,6.9,95,0.00,CLR,,0.00,WeatherDisplay:10.37,2013-04-23 07:12:00,
2013-04-23 03:17:00,68.1,66.3,29.99,North,5,3.5,3.5,94,0.00,CLR,,0.00,WeatherDisplay:10.37,2013-04-23 07:17:00,
2013-04-23 03:22:00,68.0,66.2,29.99,North,352,5.0,5.0,94,0.00,CLR,,0.00,WeatherDisplay:10.37,2013-04-23 07:22:00,
2013-04-23 03:28:00,68.0,66.2,29.98,North,358,7.0,7.0,94,0.00,CLR,,0.00,WeatherDisplay:10.37,2013-04-23 07:28:00,
2013-04-23 03:33:00,67.9,66.1,29.98,NNE,27,6.9,6.9,94,0.00,CLR,,0.00,WeatherDisplay:10.37,2013-04-23 07:33:00,
2013-04-23 03:39:00,67.7,65.9,29.98,NNW,339,8.1,8.1,94,0.00,CLR,,0.00,WeatherDisplay:10.37,2013-04-23 07:39:00,
2013-04-23 03:44:00,67.7,65.9,29.98,NNW,346,8.1,8.1,94,0.00,CLR,,0.00,WeatherDisplay:10.37,2013-04-23 07:44:00,
2013-04-23 03:49:00,67.6,66.1,29.98,NNE,19,8.1,8.1,95,0.00,CLR,,0.00,WeatherDisplay:10.37,2013-04-23 07:49:00,
2013-04-23 03:54:00,67.5,66.0,29.98,NNE,26,3.5,3.5,95,0.00,CLR,,0.00,WeatherDisplay:10.37,2013-04-23 07:54:00,
2013-04-23 03:59:00,67.4,65.9,29.98,North,350,3.5,3.5,95,0.00,CLR,,0.00,WeatherDisplay:10.37,2013-04-23 07:59:00,
2013-04-23 04:04:00,67.3,65.8,29.99,North,8,5.8,5.8,95,0.00,CLR,,0.00,WeatherDisplay:10.37,2013-04-23 08:04:00,
2013-04-23 04:09:00,67.3,65.8,29.99,NNE,16,6.9,6.9,95,0.00,CLR,,0.00,WeatherDisplay:10.37,2013-04-23 08:09:00,
2013-04-23 04:14:00,67.2,65.7,29.98,North,356,6.0,6.0,95,0.00,CLR,,0.00,WeatherDisplay:10.37,2013-04-23 08:14:00,
2013-04-23 04:20:00,67.1,65.6,29.98,NNE,17,5.8,5.8,95,0.00,CLR,,0.00,WeatherDisplay:10.37,2013-04-23 08:20:00,
2013-04-23 04:25:00,67.1,65.6,29.98,NNE,33,4.6,4.6,95,0.00,CLR,,0.00,WeatherDisplay:10.37,2013-04-23 08:25:00,
2013-04-23 04:30:00,67.0,65.5,29.98,NNW,339,5.8,5.8,95,0.00,CLR,,0.00,WeatherDisplay:10.37,2013-04-23 08:30:00,
2013-04-23 04:35:00,66.9,65.4,29.98,NW,319,4.6,4.6,95,0.00,CLR,,0.00,WeatherDisplay:10.37,2013-04-23 08:35:00,
2013-04-23 04:40:00,66.8,65.3,29.98,NNW,342,6.9,6.9,95,0.00,CLR,,0.00,WeatherDisplay:10.37,2013-04-23 08:40:00,
2013-04-23 04:46:00,66.7,65.5,29.98,North,5,8.1,8.1,96,0.00,CLR,,0.00,WeatherDisplay:10.37,2013-04-23 08:46:00,
2013-04-23 04:51:00,66.6,65.4,29.98,NW,308,6.9,6.9,96,0.00,CLR,,0.00,WeatherDisplay:10.37,2013-04-23 08:51:00,
2013-04-23 04:56:00,66.5,65.3,29.98,NNE,22,7.0,7.0,96,0.00,CLR,,0.00,WeatherDisplay:10.37,2013-04-23 08:56:00,
2013-04-23 05:01:00,66.4,65.2,29.98,NNW,345,7.0,7.0,96,0.00,CLR,,0.00,WeatherDisplay:10.37,2013-04-23 09:01:00,
2013-04-23 05:06:00,66.3,65.1,29.98,North,354,6.0,6.0,96,0.00,CLR,,0.00,WeatherDisplay:10.37,2013-04-23 09:06:00,
2013-04-23 05:11:00,66.2,65.0,29.98,North,356,4.6,4.6,96,0.00,CLR,,0.00,WeatherDisplay:10.37,2013-04-23 09:11:00,
2013-04-23 05:16:00,66.1,64.9,29.98,North,7,9.2,9.2,96,0.00,CLR,,0.00,WeatherDisplay:10.37,2013-04-23 09:16:00,
2013-04-23 05:22:00,66.0,64.8,29.99,NNE,15,5.8,5.8,96,0.00,CLR,,0.00,WeatherDisplay:10.37,2013-04-23 09:22:00,
2013-04-23 05:27:00,65.9,64.7,29.99,WNW,302,9.0,9.0,96,0.00,CLR,,0.00,WeatherDisplay:10.37,2013-04-23 09:27:00,
2013-04-23 05:32:00,65.9,64.7,29.99,NNW,345,9.2,9.2,96,0.00,CLR,,0.00,WeatherDisplay:10.37,2013-04-23 09:32:00,
2013-04-23 05:37:00,65.9,64.7,29.99,North,1,7.0,7.0,96,0.00,CLR,,0.00,WeatherDisplay:10.37,2013-04-23 09:37:00,
2013-04-23 05:42:00,66.0,64.8,29.99,North,360,10.4,10.4,96,0.00,CLR,,0.00,WeatherDisplay:10.37,2013-04-23 09:42:00,
2013-04-23 05:47:00,66.0,65.1,29.99,North,4,8.1,8.1,97,0.00,CLR,,0.00,WeatherDisplay:10.37,2013-04-23 09:47:00,
2013-04-23 05:52:00,66.0,65.1,29.99,NNE,22,8.0,8.0,97,0.00,CLR,,0.00,WeatherDisplay:10.37,2013-04-23 09:52:00,
2013-04-23 05:57:00,66.2,65.3,29.99,North,5,4.0,4.0,97,0.00,CLR,,0.00,WeatherDisplay:10.37,2013-04-23 09:57:00,
2013-04-23 06:02:00,66.2,65.3,29.99,NNW,335,6.9,6.9,97,0.00,CLR,,0.00,WeatherDisplay:10.37,2013-04-23 10:02:00,
2013-04-23 06:07:00,66.2,65.3,29.99,NNE,16,8.1,8.1,97,0.00,CLR,,0.00,WeatherDisplay:10.37,2013-04-23 10:07:00,
2013-04-23 06:12:00,66.2,65.3,29.99,North,353,6.9,6.9,97,0.00,CLR,,0.00,WeatherDisplay:10.37,2013-04-23 10:12:00,
2013-04-23 06:17:00,66.2,65.3,30.00,North,354,8.1,8.1,97,0.00,CLR,,0.00,WeatherDisplay:10.37,2013-04-23 10:17:00,
2013-04-23 06:23:00,66.3,65.4,30.00,NNE,25,8.1,8.1,97,0.00,CLR,,0.00,WeatherDisplay:10.37,2013-04-23 10:23:00,
2013-04-23 06:28:00,66.3,65.4,30.00,North,5,5.0,5.0,97,0.00,CLR,,0.00,WeatherDisplay:10.37,2013-04-23 10:28:00,
2013-04-23 06:33:00,66.3,65.4,30.00,NW,312,9.2,9.2,97,0.00,CLR,,0.00,WeatherDisplay:10.37,2013-04-23 10:33:00,
2013-04-23 06:38:00,66.4,65.5,30.00,North,9,6.9,6.9,97,0.00,CLR,,0.00,WeatherDisplay:10.37,2013-04-23 10:38:00,
2013-04-23 06:43:00,66.5,65.6,30.00,NNE,18,5.8,5.8,97,0.00,CLR,,0.00,WeatherDisplay:10.37,2013-04-23 10:43:00,
2013-04-23 06:48:00,66.6,65.7,30.00,NW,323,9.2,9.2,97,0.00,CLR,,0.00,WeatherDisplay:10.37,2013-04-23 10:48:00,
2013-04-23 06:53:00,66.6,65.7,30.00,NE,49,15.0,15.0,97,0.00,CLR,,0.00,WeatherDisplay:10.37,2013-04-23 10:53:00,
2013-04-23 06:58:00,66.6,65.7,30.00,NNE,15,9.2,9.2,97,0.00,CLR,,0.00,WeatherDisplay:10.37,2013-04-23 10:58:00,
2013-04-23 07:03:00,66.5,65.3,30.01,NNE,12,11.5,11.5,96,0.00,CLR,,0.00,WeatherDisplay:10.37,2013-04-23 11:03:00,
2013-04-23 07:08:00,66.6,65.4,30.01,North,6,9.2,9.2,96,0.00,CLR,,0.00,WeatherDisplay:10.37,2013-04-23 11:08:00,
2013-04-23 07:13:00,66.6,65.4,30.01,NNE,29,7.0,7.0,96,0.00,CLR,,0.00,WeatherDisplay:10.37,2013-04-23 11:13:00,
2013-04-23 07:19:00,66.6,65.4,30.01,NNE,33,8.1,8.1,96,0.00,CLR,,0.00,WeatherDisplay:10.37,2013-04-23 11:19:00,
2013-04-23 07:24:00,66.7,65.5,30.01,NNE,26,8.0,8.0,96,0.00,CLR,,0.00,WeatherDisplay:10.37,2013-04-23 11:24:00,
2013-04-23 07:29:00,66.8,65.6,30.02,NNE,30,10.4,10.4,96,0.00,CLR,,0.00,WeatherDisplay:10.37,2013-04-23 11:29:00,
2013-04-23 07:34:00,66.9,65.7,30.02,North,354,10.0,10.0,96,0.00,CLR,,0.00,WeatherDisplay:10.37,2013-04-23 11:34:00,
2013-04-23 07:39:00,66.9,65.7,30.02,NNE,25,9.2,9.2,96,0.00,CLR,,0.00,WeatherDisplay:10.37,2013-04-23 11:39:00,
2013-04-23 07:44:00,67.0,65.8,30.02,NNE,23,6.9,6.9,96,0.00,CLR,,0.00,WeatherDisplay:10.37,2013-04-23 11:44:00,
2013-04-23 07:49:00,67.1,65.9,30.03,North,356,11.5,11.5,96,0.00,CLR,,0.00,WeatherDisplay:10.37,2013-04-23 11:49:00,
2013-04-23 07:55:00,67.2,65.7,30.03,NNE,18,11.5,11.5,95,0.00,CLR,,0.00,WeatherDisplay:10.37,2013-04-23 11:55:00,
2013-04-23 08:00:00,67.3,65.8,30.03,NNE,33,8.1,8.1,95,0.00,CLR,,0.00,WeatherDisplay:10.37,2013-04-23 12:00:00,
2013-04-23 08:05:00,67.4,65.9,30.03,NE,43,10.0,10.0,95,0.00,CLR,,0.00,WeatherDisplay:10.37,2013-04-23 12:05:00,
2013-04-23 08:10:00,67.5,66.0,30.03,North,1,15.0,15.0,95,0.00,CLR,,0.00,WeatherDisplay:10.37,2013-04-23 12:10:00,
2013-04-23 08:15:00,67.6,66.1,30.03,NE,56,8.1,8.1,95,0.00,CLR,,0.00,WeatherDisplay:10.37,2013-04-23 12:15:00,
2013-04-23 08:20:00,67.8,66.0,30.04,North,3,8.1,8.1,94,0.00,CLR,,0.00,WeatherDisplay:10.37,2013-04-23 12:20:00,
2013-04-23 08:26:00,68.0,66.5,30.04,NNE,19,9.2,9.2,95,0.00,CLR,,0.00,WeatherDisplay:10.37,2013-04-23 12:26:00,
2013-04-23 08:31:00,68.2,66.4,30.04,North,9,8.1,8.1,94,0.00,CLR,,0.00,WeatherDisplay:10.37,2013-04-23 12:31:00,
2013-04-23 08:36:00,68.4,66.6,30.04,NNW,332,11.5,11.5,94,0.00,CLR,,0.00,WeatherDisplay:10.37,2013-04-23 12:36:00,
2013-04-23 08:41:00,68.7,66.6,30.04,North,1,11.5,11.5,93,0.00,CLR,,0.00,WeatherDisplay:10.37,2013-04-23 12:41:00,
2013-04-23 08:46:00,69.3,67.2,30.04,NNE,15,9.2,9.2,93,0.00,CLR,,0.00,WeatherDisplay:10.37,2013-04-23 12:46:00,
2013-04-23 08:51:00,69.5,67.1,30.04,NNE,18,11.0,11.0,92,0.00,CLR,,0.00,WeatherDisplay:10.37,2013-04-23 12:51:00,
2013-04-23 08:56:00,69.9,67.2,30.04,NNE,15,9.2,9.2,91,0.00,CLR,,0.00,WeatherDisplay:10.37,2013-04-23 12:56:00,
2013-04-23 09:02:00,70.3,67.5,30.04,NNE,30,9.2,9.2,91,0.00,CLR,,0.00,WeatherDisplay:10.37,2013-04-23 13:02:00,
2013-04-23 09:07:00,70.7,67.9,30.04,NNE,20,8.0,8.0,91,0.00,CLR,,0.00,WeatherDisplay:10.37,2013-04-23 13:07:00,
2013-04-23 09:12:00,70.9,67.5,30.05,NNE,15,9.2,9.2,89,0.00,CLR,,0.00,WeatherDisplay:10.37,2013-04-23 13:12:00,
2013-04-23 09:17:00,70.9,67.5,30.05,North,356,11.5,11.5,89,0.00,CLR,,0.00,WeatherDisplay:10.37,2013-04-23 13:17:00,
2013-04-23 09:23:00,71.0,67.6,30.05,NNE,25,8.1,8.1,89,0.00,CLR,,0.00,WeatherDisplay:10.37,2013-04-23 13:23:00,
2013-04-23 09:28:00,71.4,67.7,30.05,NNE,19,15.0,15.0,88,0.00,CLR,,0.00,WeatherDisplay:10.37,2013-04-23 13:28:00,
2013-04-23 09:33:00,71.8,68.1,30.05,North,352,11.5,11.5,88,0.00,CLR,,0.00,WeatherDisplay:10.37,2013-04-23 13:33:00,
2013-04-23 09:38:00,72.4,68.3,30.05,North,4,9.2,9.2,87,0.00,CLR,,0.00,WeatherDisplay:10.37,2013-04-23 13:38:00,
2013-04-23 09:44:00,73.1,68.7,30.05,North,9,10.4,10.4,86,0.00,CLR,,0.00,WeatherDisplay:10.37,2013-04-23 13:44:00,
2013-04-23 09:49:00,73.3,68.5,30.05,NNE,30,11.5,11.5,85,0.00,CLR,,0.00,WeatherDisplay:10.37,2013-04-23 13:49:00,
2013-04-23 09:54:00,73.6,68.5,30.05,NNW,346,11.5,11.5,84,0.00,CLR,,0.00,WeatherDisplay:10.37,2013-04-23 13:54:00,
2013-04-23 09:59:00,73.8,68.7,30.06,NNW,340,9.2,9.2,84,0.00,CLR,,0.00,WeatherDisplay:10.37,2013-04-23 13:59:00,
2013-04-23 10:04:00,74.1,68.6,30.06,North,6,10.4,10.4,83,0.00,CLR,,0.00,WeatherDisplay:10.37,2013-04-23 14:04:00,
2013-04-23 10:10:00,74.2,68.7,30.06,NE,46,12.7,12.7,83,0.00,CLR,,0.00,WeatherDisplay:10.37,2013-04-23 14:10:00,
2013-04-23 10:15:00,74.6,68.7,30.06,NNE,25,11.5,11.5,82,0.00,CLR,,0.00,WeatherDisplay:10.37,2013-04-23 14:15:00,
2013-04-23 10:20:00,74.8,68.6,30.06,North,360,11.0,11.0,81,0.00,CLR,,0.00,WeatherDisplay:10.37,2013-04-23 14:20:00,
2013-04-23 10:25:00,75.4,69.2,30.06,NE,56,11.5,11.5,81,0.00,CLR,,0.00,WeatherDisplay:10.37,2013-04-23 14:25:00,
2013-04-23 10:30:00,75.9,69.3,30.06,NNE,30,11.5,11.5,80,0.00,CLR,,0.00,WeatherDisplay:10.37,2013-04-23 14:30:00,
2013-04-23 10:35:00,76.2,69.2,30.06,NE,37,11.5,11.5,79,0.00,CLR,,0.00,WeatherDisplay:10.37,2013-04-23 14:35:00,
2013-04-23 10:41:00,76.3,68.6,30.06,NE,39,17.3,17.3,77,0.00,CLR,,0.00,WeatherDisplay:10.37,2013-04-23 14:41:00,
2013-04-23 10:46:00,76.4,68.7,30.06,ENE,60,12.7,12.7,77,0.00,CLR,,0.00,WeatherDisplay:10.37,2013-04-23 14:46:00,
2013-04-23 10:51:00,76.6,69.2,30.06,NE,44,11.0,11.0,78,0.00,CLR,,0.00,WeatherDisplay:10.37,2013-04-23 14:51:00,
2013-04-23 10:56:00,77.0,68.5,30.07,North,354,12.7,12.7,75,0.00,CLR,,0.00,WeatherDisplay:10.37,2013-04-23 14:56:00,
2013-04-23 11:02:00,77.9,69.3,30.07,NNE,23,9.2,9.2,75,0.00,CLR,,0.00,WeatherDisplay:10.37,2013-04-23 15:02:00,
2013-04-23 11:07:00,77.7,68.4,30.07,NE,54,15.0,15.0,73,0.00,CLR,,0.00,WeatherDisplay:10.37,2013-04-23 15:07:00,
2013-04-23 11:12:00,77.7,68.7,30.07,North,6,12.7,12.7,74,0.00,CLR,,0.00,WeatherDisplay:10.37,2013-04-23 15:12:00,
2013-04-23 11:17:00,78.0,69.0,30.07,NNE,30,13.8,13.8,74,0.00,CLR,,0.00,WeatherDisplay:10.37,2013-04-23 15:17:00,
2013-04-23 11:22:00,78.3,68.9,30.07,NNE,32,16.1,16.1,73,0.00,CLR,,0.00,WeatherDisplay:10.37,2013-04-23 15:22:00,
2013-04-23 11:27:00,78.5,69.5,30.07,NE,36,12.7,12.7,74,0.00,CLR,,0.00,WeatherDisplay:10.37,2013-04-23 15:27:00,
2013-04-23 11:32:00,79.1,69.3,30.07,ENE,63,9.2,9.2,72,0.00,CLR,,0.00,WeatherDisplay:10.37,2013-04-23 15:32:00,
2013-04-23 11:37:00,79.4,69.6,30.07,NE,34,12.7,12.7,72,0.00,CLR,,0.00,WeatherDisplay:10.37,2013-04-23 15:37:00,
2013-04-23 11:42:00,79.5,69.3,30.07,NE,52,11.5,11.5,71,0.00,CLR,,0.00,WeatherDisplay:10.37,2013-04-23 15:42:00,
2013-04-23 11:47:00,79.7,69.9,30.07,ENE,58,11.5,11.5,72,0.00,CLR,,0.00,WeatherDisplay:10.37,2013-04-23 15:47:00,
2013-04-23 11:53:00,79.7,69.5,30.07,NE,50,11.5,11.5,71,0.00,CLR,,0.00,WeatherDisplay:10.37,2013-04-23 15:53:00,
2013-04-23 11:58:00,80.1,69.4,30.07,NNE,25,11.5,11.5,70,0.00,CLR,,0.00,WeatherDisplay:10.37,2013-04-23 15:58:00,
2013-04-23 12:03:00,80.5,69.4,30.07,NNE,32,13.8,13.8,69,0.00,CLR,,0.00,WeatherDisplay:10.37,2013-04-23 16:03:00,
2013-04-23 12:08:00,80.2,69.1,30.07,NE,44,11.5,11.5,69,0.00,CLR,,0.00,WeatherDisplay:10.37,2013-04-23 16:08:00,
2013-04-23 12:13:00,80.2,69.1,30.06,ENE,60,11.5,11.5,69,0.00,CLR,,0.00,WeatherDisplay:10.37,2013-04-23 16:13:00,
2013-04-23 12:18:00,80.5,68.5,30.06,NE,46,12.7,12.7,67,0.00,CLR,,0.00,WeatherDisplay:10.37,2013-04-23 16:18:00,
2013-04-23 12:23:00,80.2,68.7,30.06,ENE,68,13.8,13.8,68,0.00,CLR,,0.00,WeatherDisplay:10.37,2013-04-23 16:23:00,
2013-04-23 12:28:00,80.8,68.4,30.06,North,9,13.8,13.8,66,0.00,CLR,,0.00,WeatherDisplay:10.37,2013-04-23 16:28:00,
2013-04-23 12:33:00,80.7,69.6,30.06,NNE,16,9.2,9.2,69,0.00,CLR,,0.00,WeatherDisplay:10.37,2013-04-23 16:33:00,
2013-04-23 12:38:00,81.3,69.7,30.06,North,11,11.5,11.5,68,0.00,CLR,,0.00,WeatherDisplay:10.37,2013-04-23 16:38:00,
2013-04-23 12:43:00,81.4,69.8,30.05,NNW,337,10.4,10.4,68,0.00,CLR,,0.00,WeatherDisplay:10.37,2013-04-23 16:43:00,
2013-04-23 12:48:00,81.2,69.6,30.05,NE,50,11.5,11.5,68,0.00,CLR,,0.00,WeatherDisplay:10.37,2013-04-23 16:48:00,
2013-04-23 12:54:00,82.0,69.1,30.05,North,356,8.1,8.1,65,0.00,CLR,,0.00,WeatherDisplay:10.37,2013-04-23 16:54:00,
2013-04-23 12:59:00,82.4,69.4,30.05,NE,34,11.5,11.5,65,0.00,CLR,,0.00,WeatherDisplay:10.37,2013-04-23 16:59:00,
2013-04-23 13:04:00,82.6,68.7,30.05,NW,322,11.5,11.5,63,0.00,CLR,,0.00,WeatherDisplay:10.37,2013-04-23 17:04:00,
2013-04-23 13:09:00,83.0,69.6,30.04,ENE,74,6.9,6.9,64,0.00,CLR,,0.00,WeatherDisplay:10.37,2013-04-23 17:09:00,
2013-04-23 13:14:00,83.6,68.2,30.04,NNW,343,11.5,11.5,60,0.00,CLR,,0.00,WeatherDisplay:10.37,2013-04-23 17:14:00,
2013-04-23 13:19:00,83.7,68.3,30.04,NE,53,11.5,11.5,60,0.00,CLR,,0.00,WeatherDisplay:10.37,2013-04-23 17:19:00,
2013-04-23 13:24:00,83.4,68.5,30.03,NNE,25,11.5,11.5,61,0.00,CLR,,0.00,WeatherDisplay:10.37,2013-04-23 17:24:00,
2013-04-23 13:30:00,83.6,67.8,30.03,NNE,32,11.5,11.5,59,0.00,CLR,,0.00,WeatherDisplay:10.37,2013-04-23 17:30:00,
2013-04-23 13:35:00,83.5,68.6,30.03,NNE,15,7.0,7.0,61,0.00,CLR,,0.00,WeatherDisplay:10.37,2013-04-23 17:35:00,
2013-04-23 13:40:00,83.6,68.7,30.03,NNW,330,8.1,8.1,61,0.00,CLR,,0.00,WeatherDisplay:10.37,2013-04-23 17:40:00,
2013-04-23 13:45:00,84.1,68.2,30.03,NE,56,9.2,9.2,59,0.00,CLR,,0.00,WeatherDisplay:10.37,2013-04-23 17:45:00,
2013-04-23 13:50:00,84.3,67.9,30.03,NNE,16,10.4,10.4,58,0.00,CLR,,0.00,WeatherDisplay:10.37,2013-04-23 17:50:00,
2013-04-23 13:55:00,84.5,68.6,30.03,NNE,23,11.5,11.5,59,0.00,CLR,,0.00,WeatherDisplay:10.37,2013-04-23 17:55:00,
2013-04-23 14:00:00,84.2,68.3,30.03,NE,34,13.0,13.0,59,0.00,CLR,,0.00,WeatherDisplay:10.37,2013-04-23 18:00:00,
2013-04-23 14:05:00,84.3,67.9,30.02,NNE,15,10.4,10.4,58,0.00,CLR,,0.00,WeatherDisplay:10.37,2013-04-23 18:05:00,
2013-04-23 14:10:00,85.0,68.6,30.02,North,9,8.1,8.1,58,0.00,CLR,,0.00,WeatherDisplay:10.37,2013-04-23 18:10:00,
2013-04-23 14:15:00,85.0,68.6,30.02,NNW,334,10.4,10.4,58,0.00,CLR,,0.00,WeatherDisplay:10.37,2013-04-23 18:15:00,
2013-04-23 14:20:00,85.3,68.3,30.02,NNE,30,11.5,11.5,57,0.00,CLR,,0.00,WeatherDisplay:10.37,2013-04-23 18:20:00,
2013-04-23 14:26:00,85.5,68.5,30.02,North,360,10.4,10.4,57,0.00,CLR,,0.00,WeatherDisplay:10.37,2013-04-23 18:26:00,
2013-04-23 14:31:00,85.5,68.5,30.01,NW,322,11.5,11.5,57,0.00,CLR,,0.00,WeatherDisplay:10.37,2013-04-23 18:31:00,
2013-04-23 14:36:00,86.0,68.5,30.01,NNE,13,9.2,9.2,56,0.00,CLR,,0.00,WeatherDisplay:10.37,2013-04-23 18:36:00,
2013-04-23 14:41:00,85.9,67.3,30.01,NNE,30,11.5,11.5,54,0.00,CLR,,0.00,WeatherDisplay:10.37,2013-04-23 18:41:00,
2013-04-23 14:46:00,85.9,67.3,30.01,East,82,11.5,11.5,54,0.00,CLR,,0.00,WeatherDisplay:10.37,2013-04-23 18:46:00,
2013-04-23 14:51:00,85.8,66.7,30.01,NNW,332,8.1,8.1,53,0.00,CLR,,0.00,WeatherDisplay:10.37,2013-04-23 18:51:00,
2013-04-23 14:56:00,86.0,67.4,30.01,North,9,10.0,10.0,54,0.00,CLR,,0.00,WeatherDisplay:10.37,2013-04-23 18:56:00,
2013-04-23 15:02:00,85.9,67.3,30.01,NW,316,10.4,10.4,54,0.00,CLR,,0.00,WeatherDisplay:10.37,2013-04-23 19:02:00,
2013-04-23 15:07:00,85.9,66.8,30.01,North,7,11.5,11.5,53,0.00,CLR,,0.00,WeatherDisplay:10.37,2013-04-23 19:07:00,
2013-04-23 15:12:00,85.3,66.2,30.00,NNW,337,9.2,9.2,53,0.00,CLR,,0.00,WeatherDisplay:10.37,2013-04-23 19:12:00,
2013-04-23 15:17:00,84.8,66.3,30.00,NNW,333,8.1,8.1,54,0.00,CLR,,0.00,WeatherDisplay:10.37,2013-04-23 19:17:00,
2013-04-23 15:22:00,85.5,64.7,30.00,NNE,12,10.4,10.4,50,0.00,CLR,,0.00,WeatherDisplay:10.37,2013-04-23 19:22:00,
2013-04-23 15:27:00,85.7,66.0,30.00,NNE,33,5.8,5.8,52,0.00,CLR,,0.00,WeatherDisplay:10.37,2013-04-23 19:27:00,
2013-04-23 15:32:00,85.7,66.0,30.00,NNE,20,9.2,9.2,52,0.00,CLR,,0.00,WeatherDisplay:10.37,2013-04-23 19:32:00,
2013-04-23 15:38:00,85.4,66.3,30.00,NNE,13,10.4,10.4,53,0.00,CLR,,0.00,WeatherDisplay:10.37,2013-04-23 19:38:00,
2013-04-23 15:43:00,84.8,66.3,30.00,NE,39,8.1,8.1,54,0.00,CLR,,0.00,WeatherDisplay:10.37,2013-04-23 19:43:00,
2013-04-23 15:48:00,85.7,67.1,29.99,North,9,8.1,8.1,54,0.00,CLR,,0.00,WeatherDisplay:10.37,2013-04-23 19:48:00,
2013-04-23 15:53:00,86.3,67.2,29.99,NE,34,12.7,12.7,53,0.00,CLR,,0.00,WeatherDisplay:10.37,2013-04-23 19:53:00,
2013-04-23 15:58:00,85.6,66.5,29.99,NE,45,11.5,11.5,53,0.00,CLR,,0.00,WeatherDisplay:10.37,2013-04-23 19:58:00,
2013-04-23 16:03:00,85.0,66.0,29.99,NE,44,9.2,9.2,53,0.00,CLR,,0.00,WeatherDisplay:10.37,2013-04-23 20:03:00,
2013-04-23 16:08:00,85.3,66.2,29.99,NNE,17,6.0,6.0,53,0.00,CLR,,0.00,WeatherDisplay:10.37,2013-04-23 20:08:00,
2013-04-23 16:13:00,85.8,66.1,29.99,NE,36,9.0,9.0,52,0.00,CLR,,0.00,WeatherDisplay:10.37,2013-04-23 20:13:00,
2013-04-23 16:18:00,86.5,66.2,29.99,NNE,30,12.7,12.7,51,0.00,CLR,,0.00,WeatherDisplay:10.37,2013-04-23 20:18:00,
2013-04-23 16:23:00,85.7,64.9,29.99,NNE,23,10.4,10.4,50,0.00,CLR,,0.00,WeatherDisplay:10.37,2013-04-23 20:23:00,
2013-04-23 16:28:00,85.5,64.7,29.98,NE,41,8.1,8.1,50,0.00,CLR,,0.00,WeatherDisplay:10.37,2013-04-23 20:28:00,
2013-04-23 16:34:00,86.3,64.3,29.98,NNE,27,6.9,6.9,48,0.00,CLR,,0.00,WeatherDisplay:10.37,2013-04-23 20:34:00,
2013-04-23 16:39:00,86.7,64.7,29.98,NW,313,7.0,7.0,48,0.00,CLR,,0.00,WeatherDisplay:10.37,2013-04-23 20:39:00,
2013-04-23 16:44:00,87.0,66.1,29.98,NNE,27,12.7,12.7,50,0.00,CLR,,0.00,WeatherDisplay:10.37,2013-04-23 20:44:00,
2013-04-23 16:49:00,86.9,66.0,29.98,North,11,6.9,6.9,50,0.00,CLR,,0.00,WeatherDisplay:10.37,2013-04-23 20:49:00,
2013-04-23 16:54:00,86.5,66.2,29.98,NNW,345,11.5,11.5,51,0.00,CLR,,0.00,WeatherDisplay:10.37,2013-04-23 20:54:00,
2013-04-23 16:59:00,86.6,66.9,29.98,North,8,10.4,10.4,52,0.00,CLR,,0.00,WeatherDisplay:10.37,2013-04-23 20:59:00,
2013-04-23 17:04:00,86.7,67.0,29.98,NNE,30,12.0,12.0,52,0.00,CLR,,0.00,WeatherDisplay:10.37,2013-04-23 21:04:00,
2013-04-23 17:10:00,86.5,66.8,29.98,NE,35,10.4,10.4,52,0.00,CLR,,0.00,WeatherDisplay:10.37,2013-04-23 21:10:00,
2013-04-23 17:15:00,85.5,67.0,29.98,NNE,20,13.8,13.8,54,0.00,CLR,,0.00,WeatherDisplay:10.37,2013-04-23 21:15:00,
2013-04-23 17:20:00,85.7,67.7,29.98,NE,45,11.5,11.5,55,0.00,CLR,,0.00,WeatherDisplay:10.37,2013-04-23 21:20:00,
2013-04-23 17:25:00,85.6,67.6,29.98,NNE,16,16.1,16.1,55,0.00,CLR,,0.00,WeatherDisplay:10.37,2013-04-23 21:25:00,
2013-04-23 17:30:00,84.5,67.1,29.98,NE,40,10.4,10.4,56,0.00,CLR,,0.00,WeatherDisplay:10.37,2013-04-23 21:30:00,
2013-04-23 17:35:00,84.1,66.2,29.98,NE,36,12.0,12.0,55,0.00,CLR,,0.00,WeatherDisplay:10.37,2013-04-23 21:35:00,
2013-04-23 17:41:00,84.0,66.1,29.98,NE,55,12.7,12.7,55,0.00,CLR,,0.00,WeatherDisplay:10.37,2013-04-23 21:41:00,
2013-04-23 17:46:00,84.1,66.7,29.98,North,1,10.4,10.4,56,0.00,CLR,,0.00,WeatherDisplay:10.37,2013-04-23 21:46:00,
2013-04-23 17:51:00,84.5,67.1,29.98,NNE,23,11.5,11.5,56,0.00,CLR,,0.00,WeatherDisplay:10.37,2013-04-23 21:51:00,
2013-04-23 17:56:00,84.8,67.4,29.98,North,11,10.4,10.4,56,0.00,CLR,,0.00,WeatherDisplay:10.37,2013-04-23 21:56:00,
2013-04-23 18:01:00,84.8,66.8,29.98,NE,53,12.7,12.7,55,0.00,CLR,,0.00,WeatherDisplay:10.37,2013-04-23 22:01:00,
2013-04-23 18:06:00,84.5,67.1,29.98,NE,53,11.5,11.5,56,0.00,CLR,,0.00,WeatherDisplay:10.37,2013-04-23 22:06:00,
2013-04-23 18:11:00,83.8,65.9,29.99,NE,44,14.0,14.0,55,0.00,CLR,,0.00,WeatherDisplay:10.37,2013-04-23 22:11:00,
2013-04-23 18:16:00,83.3,66.0,29.99,ENE,64,11.5,11.5,56,0.00,CLR,,0.00,WeatherDisplay:10.37,2013-04-23 22:16:00,
2013-04-23 18:22:00,83.0,66.2,29.99,NNW,342,9.2,9.2,57,0.00,CLR,,0.00,WeatherDisplay:10.37,2013-04-23 22:22:00,
2013-04-23 18:27:00,83.1,65.8,29.99,ENE,72,12.7,12.7,56,0.00,CLR,,0.00,WeatherDisplay:10.37,2013-04-23 22:27:00,
2013-04-23 18:32:00,83.1,66.3,29.99,NE,39,16.1,16.1,57,0.00,CLR,,0.00,WeatherDisplay:10.37,2013-04-23 22:32:00,
2013-04-23 18:37:00,82.7,65.9,29.99,ENE,58,11.5,11.5,57,0.00,CLR,,0.00,WeatherDisplay:10.37,2013-04-23 22:37:00,
2013-04-23 18:42:00,82.6,66.3,29.99,NNE,30,12.7,12.7,58,0.00,CLR,,0.00,WeatherDisplay:10.37,2013-04-23 22:42:00,
2013-04-23 18:47:00,82.4,65.6,29.99,North,352,12.7,12.7,57,0.00,CLR,,0.00,WeatherDisplay:10.37,2013-04-23 22:47:00,
2013-04-23 18:52:00,82.2,64.9,29.99,NE,39,15.0,15.0,56,0.00,CLR,,0.00,WeatherDisplay:10.37,2013-04-23 22:52:00,
2013-04-23 18:57:00,82.1,65.4,30.00,North,359,11.0,11.0,57,0.00,CLR,,0.00,WeatherDisplay:10.37,2013-04-23 22:57:00,
2013-04-23 19:03:00,81.9,65.2,30.00,ENE,57,11.5,11.5,57,0.00,CLR,,0.00,WeatherDisplay:10.37,2013-04-23 23:03:00,
2013-04-23 19:08:00,81.6,65.4,30.00,NE,47,11.5,11.5,58,0.00,CLR,,0.00,WeatherDisplay:10.37,2013-04-23 23:08:00,
2013-04-23 19:13:00,81.4,65.2,30.00,NE,45,13.0,13.0,58,0.00,CLR,,0.00,WeatherDisplay:10.37,2013-04-23 23:13:00,
2013-04-23 19:18:00,81.2,65.5,30.00,ENE,60,9.2,9.2,59,0.00,CLR,,0.00,WeatherDisplay:10.37,2013-04-23 23:18:00,
2013-04-23 19:23:00,80.9,65.2,30.00,North,11,13.8,13.8,59,0.00,CLR,,0.00,WeatherDisplay:10.37,2013-04-23 23:23:00,
2013-04-23 19:29:00,80.6,64.9,30.01,ENE,70,11.5,11.5,59,0.00,CLR,,0.00,WeatherDisplay:10.37,2013-04-23 23:29:00,
2013-04-23 19:34:00,80.3,65.1,30.01,NE,39,11.5,11.5,60,0.00,CLR,,0.00,WeatherDisplay:10.37,2013-04-23 23:34:00,
2013-04-23 19:39:00,79.9,65.2,30.01,NNE,25,13.8,13.8,61,0.00,CLR,,0.00,WeatherDisplay:10.37,2013-04-23 23:39:00,
2013-04-23 19:44:00,79.6,65.0,30.01,NE,34,15.0,15.0,61,0.00,CLR,,0.00,WeatherDisplay:10.37,2013-04-23 23:44:00,
2013-04-23 19:49:00,79.4,65.2,30.01,North,11,10.4,10.4,62,0.00,CLR,,0.00,WeatherDisplay:10.37,2013-04-23 23:49:00,
2013-04-23 19:54:00,79.0,64.9,30.01,North,5,9.2,9.2,62,0.00,CLR,,0.00,WeatherDisplay:10.37,2013-04-23 23:54:00,
2013-04-23 19:59:00,78.8,65.1,30.01,NNW,334,13.8,13.8,63,0.00,CLR,,0.00,WeatherDisplay:10.37,2013-04-23 23:59:00,
2013-04-23 20:04:00,78.5,64.9,30.02,North,9,8.1,8.1,63,0.00,CLR,,0.00,WeatherDisplay:10.37,2013-04-24 00:04:00,
2013-04-23 20:09:00,78.2,65.0,30.02,NNE,15,10.4,10.4,64,0.00,CLR,,0.00,WeatherDisplay:10.37,2013-04-24 00:09:00,
2013-04-23 20:14:00,77.9,64.7,30.02,North,352,11.5,11.5,64,0.00,CLR,,0.00,WeatherDisplay:10.37,2013-04-24 00:14:00,
2013-04-23 20:19:00,77.7,64.5,30.02,NNW,348,11.5,11.5,64,0.00,CLR,,0.00,WeatherDisplay:10.37,2013-04-24 00:19:00,
2013-04-23 20:25:00,77.4,64.3,30.03,NE,49,11.5,11.5,64,0.00,CLR,,0.00,WeatherDisplay:10.37,2013-04-24 00:25:00,
2013-04-23 20:30:00,77.3,64.2,30.03,NNE,20,10.4,10.4,64,0.00,CLR,,0.00,WeatherDisplay:10.37,2013-04-24 00:30:00,
2013-04-23 20:35:00,77.0,64.3,30.03,NNE,19,9.2,9.2,65,0.00,CLR,,0.00,WeatherDisplay:10.37,2013-04-24 00:35:00,
2013-04-23 20:40:00,76.8,64.1,30.03,NNE,23,11.5,11.5,65,0.00,CLR,,0.00,WeatherDisplay:10.37,2013-04-24 00:40:00,
2013-04-23 20:45:00,76.6,64.0,30.03,NE,37,12.7,12.7,65,0.00,CLR,,0.00,WeatherDisplay:10.37,2013-04-24 00:45:00,
2013-04-23 20:50:00,76.4,64.2,30.04,NNW,345,10.4,10.4,66,0.00,CLR,,0.00,WeatherDisplay:10.37,2013-04-24 00:50:00,
2013-04-23 20:55:00,76.2,64.0,30.04,North,355,12.7,12.7,66,0.00,CLR,,0.00,WeatherDisplay:10.37,2013-04-24 00:55:00,
2013-04-23 21:00:00,76.1,64.3,30.05,NE,39,10.4,10.4,67,0.00,CLR,,0.00,WeatherDisplay:10.37,2013-04-24 01:00:00,
2013-04-23 21:05:00,75.9,64.2,30.05,NNE,19,12.7,12.7,67,0.00,CLR,,0.00,WeatherDisplay:10.37,2013-04-24 01:05:00,
2013-04-23 21:10:00,75.7,64.4,30.05,NE,49,11.5,11.5,68,0.00,CLR,,0.00,WeatherDisplay:10.37,2013-04-24 01:10:00,
2013-04-23 21:16:00,75.5,64.2,30.05,NE,44,11.5,11.5,68,0.00,CLR,,0.00,WeatherDisplay:10.37,2013-04-24 01:16:00,
2013-04-23 21:21:00,75.2,64.3,30.05,NNE,23,9.2,9.2,69,0.00,CLR,,0.00,WeatherDisplay:10.37,2013-04-24 01:21:00,
2013-04-23 21:26:00,75.0,64.5,30.06,North,1,9.2,9.2,70,0.00,CLR,,0.00,WeatherDisplay:10.37,2013-04-24 01:26:00,
2013-04-23 21:31:00,74.8,64.4,30.06,NE,50,9.2,9.2,70,0.00,CLR,,0.00,WeatherDisplay:10.37,2013-04-24 01:31:00,
2013-04-23 21:37:00,74.6,64.6,30.06,NNE,23,10.4,10.4,71,0.00,CLR,,0.00,WeatherDisplay:10.37,2013-04-24 01:37:00,
2013-04-23 21:42:00,74.4,64.8,30.06,NNE,33,10.4,10.4,72,0.00,CLR,,0.00,WeatherDisplay:10.37,2013-04-24 01:42:00,
2013-04-23 21:47:00,74.2,64.6,30.07,NE,40,9.0,9.0,72,0.00,CLR,,0.00,WeatherDisplay:10.37,2013-04-24 01:47:00,
2013-04-23 21:52:00,74.0,64.4,30.07,NNE,15,9.2,9.2,72,0.00,CLR,,0.00,WeatherDisplay:10.37,2013-04-24 01:52:00,
2013-04-23 21:57:00,73.8,64.2,30.07,NNE,23,9.2,9.2,72,0.00,CLR,,0.00,WeatherDisplay:10.37,2013-04-24 01:57:00,
2013-04-23 22:02:00,73.7,64.5,30.07,NE,34,11.5,11.5,73,0.00,CLR,,0.00,WeatherDisplay:10.37,2013-04-24 02:02:00,
2013-04-23 22:08:00,73.5,64.3,30.07,NNE,20,8.1,8.1,73,0.00,CLR,,0.00,WeatherDisplay:10.37,2013-04-24 02:08:00,
2013-04-23 22:13:00,73.3,64.1,30.07,NNE,29,11.5,11.5,73,0.00,CLR,,0.00,WeatherDisplay:10.37,2013-04-24 02:13:00,
2013-04-23 22:18:00,73.1,63.9,30.07,NNE,25,10.4,10.4,73,0.00,CLR,,0.00,WeatherDisplay:10.37,2013-04-24 02:18:00,
2013-04-23 22:23:00,72.9,63.7,30.07,ENE,77,12.7,12.7,73,0.00,CLR,,0.00,WeatherDisplay:10.37,2013-04-24 02:23:00,
2013-04-23 22:28:00,72.8,64.0,30.08,NE,34,13.8,13.8,74,0.00,CLR,,0.00,WeatherDisplay:10.37,2013-04-24 02:28:00,
2013-04-23 22:34:00,72.6,63.8,30.08,NNE,23,11.5,11.5,74,0.00,CLR,,0.00,WeatherDisplay:10.37,2013-04-24 02:34:00,
2013-04-23 22:39:00,72.4,63.6,30.08,NNE,33,11.5,11.5,74,0.00,CLR,,0.00,WeatherDisplay:10.37,2013-04-24 02:39:00,
2013-04-23 22:44:00,72.3,63.9,30.08,ENE,58,9.2,9.2,75,0.00,CLR,,0.00,WeatherDisplay:10.37,2013-04-24 02:44:00,
2013-04-23 22:49:00,72.2,63.8,30.08,NNE,29,12.0,12.0,75,0.00,CLR,,0.00,WeatherDisplay:10.37,2013-04-24 02:49:00,
2013-04-23 22:54:00,72.0,63.6,30.08,North,354,9.2,9.2,75,0.00,CLR,,0.00,WeatherDisplay:10.37,2013-04-24 02:54:00,
2013-04-23 22:59:00,71.8,63.8,30.09,NE,51,6.9,6.9,76,0.00,CLR,,0.00,WeatherDisplay:10.37,2013-04-24 02:59:00,
2013-04-23 23:05:00,71.6,63.6,30.09,NNE,27,12.7,12.7,76,0.00,CLR,,0.00,WeatherDisplay:10.37,2013-04-24 03:05:00,
2013-04-23 23:10:00,71.4,63.8,30.09,NE,36,8.1,8.1,77,0.00,CLR,,0.00,WeatherDisplay:10.37,2013-04-24 03:10:00,
2013-04-23 23:15:00,71.2,63.6,30.09,NE,34,6.9,6.9,77,0.00,CLR,,0.00,WeatherDisplay:10.37,2013-04-24 03:15:00,
2013-04-23 23:20:00,71.1,63.9,30.09,NE,46,9.2,9.2,78,0.00,CLR,,0.00,WeatherDisplay:10.37,2013-04-24 03:20:00,
2013-04-23 23:26:00,71.0,63.8,30.09,ENE,69,10.4,10.4,78,0.00,CLR,,0.00,WeatherDisplay:10.37,2013-04-24 03:26:00,
2013-04-23 23:31:00,70.8,63.6,30.08,NNE,20,12.7,12.7,78,0.00,CLR,,0.00,WeatherDisplay:10.37,2013-04-24 03:31:00,
2013-04-23 23:36:00,70.7,63.9,30.08,NNE,25,10.4,10.4,79,0.00,CLR,,0.00,WeatherDisplay:10.37,2013-04-24 03:36:00,
2013-04-23 23:41:00,70.5,63.7,30.08,NE,39,10.4,10.4,79,0.00,CLR,,0.00,WeatherDisplay:10.37,2013-04-24 03:41:00,
2013-04-23 23:46:00,70.3,63.8,30.08,North,4,11.5,11.5,80,0.00,CLR,,0.00,WeatherDisplay:10.37,2013-04-24 03:46:00,
2013-04-23 23:51:00,70.2,63.7,30.08,NNE,27,8.1,8.1,80,0.00,CLR,,0.00,WeatherDisplay:10.37,2013-04-24 03:51:00,
2013-04-23 23:56:00,70.1,63.6,30.08,NNE,12,11.5,11.5,80,0.00,CLR,,0.00,WeatherDisplay:10.37,2013-04-24 03:56:00,